Time;durP1;ratioP1;P1;durP2;ratioP2;P2;SDS_P1;SDS_P2;PMS_P1;PMS_P2;Temp;Humidity;BMP_temperature;BMP_pressure;BME280_temperature;BME280_humidity;BME280_pressure;Samples;Min_cycle;Max_cycle;Signal;HPM_P1;HPM_P2
2021/04/30 05:32:32;;;;;;;15.43;10.30;;;;;;;12.33;72.20;99399.47;1691216;83;25655;-56
2021/04/30 05:35:00;;;;;;;13.98;9.65;;;;;;;12.39;72.47;99395.16;1693257;83;25513;-55
2021/04/30 05:37:27;;;;;;;14.15;9.18;;;;;;;12.48;71.90;99395.26;1695480;84;25578;-54
2021/04/30 05:39:54;;;;;;;13.93;9.58;;;;;;;12.51;71.66;99388.34;1695150;84;25763;-55
2021/04/30 05:42:22;;;;;;;15.50;9.33;;;;;;;12.58;71.36;99391.83;1678862;84;26605;-55
2021/04/30 05:44:50;;;;;;;13.18;9.83;;;;;;;12.68;71.50;99388.08;1688339;83;25792;-56
2021/04/30 05:47:17;;;;;;;12.30;9.53;;;;;;;12.83;71.42;99391.17;1664433;85;26254;-55
2021/04/30 05:49:44;;;;;;;16.25;10.08;;;;;;;12.95;70.47;99400.61;1720027;82;25698;-55
2021/04/30 05:52:10;;;;;;;12.78;9.28;;;;;;;13.05;70.04;99404.19;1696064;83;25650;-55
2021/04/30 05:54:37;;;;;;;11.65;8.93;;;;;;;13.21;69.59;99404.23;1711393;81;25780;-53
2021/04/30 05:57:12;;;;;;;12.37;9.05;;;;;;;13.49;69.43;99403.98;1882514;75;32871;-54
2021/04/30 05:59:39;;;;;;;11.28;9.63;;;;;;;13.56;68.25;99408.23;1825246;78;25558;-55
2021/04/30 06:02:06;;;;;;;13.55;9.00;;;;;;;13.66;67.24;99406.34;1825053;78;25736;-55
2021/04/30 06:04:33;;;;;;;12.82;8.83;;;;;;;13.72;65.90;99402.20;1825235;78;25590;-55
2021/04/30 06:07:00;;;;;;;11.38;8.68;;;;;;;13.76;66.33;99409.89;1825230;78;25586;-55
2021/04/30 06:09:26;;;;;;;12.10;8.68;;;;;;;13.73;65.08;99417.38;1786054;78;25592;-54
2021/04/30 06:11:54;;;;;;;10.63;8.73;;;;;;;13.74;65.75;99417.61;1825236;78;25506;-54
2021/04/30 06:14:22;;;;;;;13.20;9.48;;;;;;;13.85;65.70;99417.86;1825289;78;25686;-54
2021/04/30 06:16:48;;;;;;;9.08;7.30;;;;;;;14.03;65.18;99416.13;1825145;78;25520;-54
2021/04/30 06:19:14;;;;;;;12.07;8.63;;;;;;;14.25;65.67;99420.12;1825011;78;26200;-53
2021/04/30 06:21:41;;;;;;;12.68;9.75;;;;;;;14.44;64.00;99423.44;1824824;78;25511;-54
2021/04/30 06:24:09;;;;;;;13.55;9.23;;;;;;;14.64;63.16;99424.28;1824787;78;25579;-55
2021/04/30 06:26:35;;;;;;;11.75;8.75;;;;;;;14.79;62.44;99428.09;1825273;78;25955;-55
2021/04/30 06:29:02;;;;;;;14.28;10.10;;;;;;;14.94;62.96;99426.64;1825151;78;25594;-55
2021/04/30 06:31:28;;;;;;;10.75;9.10;;;;;;;15.16;61.77;99427.06;1820428;78;25606;-58
2021/04/30 06:33:55;;;;;;;12.10;9.55;;;;;;;15.35;61.60;99421.37;1825263;78;25628;-55
2021/04/30 06:36:22;;;;;;;11.68;10.00;;;;;;;15.54;60.83;99433.57;1825232;78;25591;-54
2021/04/30 06:38:48;;;;;;;11.33;9.40;;;;;;;15.73;61.00;99434.08;1825238;78;25687;-55
2021/04/30 06:41:15;;;;;;;13.98;9.35;;;;;;;15.99;59.89;99436.09;1825488;77;25855;-54
2021/04/30 06:43:43;;;;;;;12.55;9.00;;;;;;;16.19;58.75;99434.63;1855103;77;25573;-54
2021/04/30 06:46:10;;;;;;;12.60;8.58;;;;;;;16.47;57.62;99432.88;1852424;76;26493;-55
2021/04/30 06:48:37;;;;;;;9.95;8.38;;;;;;;16.74;58.33;99436.94;1839746;76;25597;-55
2021/04/30 06:51:04;;;;;;;11.28;9.30;;;;;;;16.83;52.99;99437.43;1827840;76;25921;-55
2021/04/30 06:53:31;;;;;;;10.50;8.18;;;;;;;16.82;51.93;99437.21;1868927;76;25602;-55
2021/04/30 06:55:58;;;;;;;13.72;8.40;;;;;;;16.78;50.73;99445.95;1870064;76;25629;-55
2021/04/30 06:58:25;;;;;;;11.33;7.65;;;;;;;16.77;52.41;99443.81;1870374;76;25565;-55
2021/04/30 07:00:52;;;;;;;9.28;8.00;;;;;;;17.00;52.88;99442.92;1855613;76;25564;-55
2021/04/30 07:03:18;;;;;;;12.50;10.08;;;;;;;17.25;53.33;99443.20;1870449;76;25768;-56
2021/04/30 07:05:45;;;;;;;13.45;10.13;;;;;;;17.39;48.94;99440.41;1870238;76;25584;-56
2021/04/30 07:08:12;;;;;;;13.40;11.15;;;;;;;17.42;50.05;99441.81;1869707;76;25636;-55
2021/04/30 07:10:38;;;;;;;12.58;10.25;;;;;;;17.48;49.21;99451.23;1869718;76;25461;-55
2021/04/30 07:13:12;;;;;;;12.10;10.63;;;;;;;17.54;48.62;99444.27;1869515;76;25518;-56
2021/04/30 07:15:47;;;;;;;13.93;9.73;;;;;;;17.76;47.69;99445.83;1848584;76;25431;-56
2021/04/30 07:18:13;;;;;;;11.75;9.58;;;;;;;17.86;48.50;99442.95;1818064;77;26153;-56
2021/04/30 07:20:40;;;;;;;12.98;8.83;;;;;;;18.07;47.58;99446.48;1820022;78;26192;-56
2021/04/30 07:23:06;;;;;;;11.22;9.48;;;;;;;18.36;49.02;99448.05;1819933;78;25573;-56
2021/04/30 07:25:33;;;;;;;11.75;9.53;;;;;;;18.62;48.44;99457.36;1819912;78;25561;-57
2021/04/30 07:28:00;;;;;;;10.88;9.25;;;;;;;18.77;47.58;99456.08;1750599;81;25587;-56
2021/04/30 07:30:26;;;;;;;11.65;9.68;;;;;;;18.91;46.89;99463.59;1767691;81;25556;-55
2021/04/30 07:32:53;;;;;;;12.20;9.78;;;;;;;18.97;46.03;99460.70;1777944;80;25830;-55
2021/04/30 07:35:19;;;;;;;10.63;9.53;;;;;;;19.19;46.90;99470.55;1777728;80;25727;-55
2021/04/30 07:37:45;;;;;;;13.00;10.30;;;;;;;19.45;46.56;99465.13;1777985;80;25704;-56
2021/04/30 07:40:13;;;;;;;11.68;10.35;;;;;;;19.66;43.29;99473.38;1777355;80;25557;-55
2021/04/30 07:42:40;;;;;;;16.05;10.85;;;;;;;19.45;42.24;99474.13;1777651;80;25589;-53
2021/04/30 07:45:08;;;;;;;11.25;10.08;;;;;;;19.34;42.72;99480.98;1749066;80;25932;-56
2021/04/30 07:47:35;;;;;;;12.58;9.90;;;;;;;19.41;44.70;99475.50;1766721;80;25704;-55
2021/04/30 07:50:03;;;;;;;14.60;10.72;;;;;;;19.44;42.17;99480.00;1760544;81;25633;-55
2021/04/30 07:52:29;;;;;;;12.37;10.98;;;;;;;19.31;42.12;99465.30;1760048;81;25881;-55
2021/04/30 07:54:55;;;;;;;16.12;11.55;;;;;;;19.35;42.41;99467.45;1760186;81;25655;-55
2021/04/30 07:57:22;;;;;;;13.60;11.30;;;;;;;19.21;41.22;99470.17;1757601;81;25704;-57
2021/04/30 07:59:48;;;;;;;14.45;11.50;;;;;;;19.15;42.36;99464.85;1730393;82;25675;-56
2021/04/30 08:02:16;;;;;;;13.95;11.85;;;;;;;19.26;40.83;99469.79;1730324;82;25604;-57
2021/04/30 08:04:43;;;;;;;13.70;10.90;;;;;;;19.19;41.38;99473.30;1730703;82;25627;-57
2021/04/30 08:07:09;;;;;;;14.13;10.78;;;;;;;19.32;42.71;99473.70;1730770;82;25509;-57
2021/04/30 08:09:36;;;;;;;14.33;12.68;;;;;;;19.48;42.31;99467.87;1730767;82;25905;-57
2021/04/30 08:12:04;;;;;;;13.08;11.75;;;;;;;19.65;39.22;99483.36;1730667;82;25618;-58
2021/04/30 08:14:31;;;;;;;14.60;12.55;;;;;;;19.50;39.97;99467.49;1700576;81;25724;-57
2021/04/30 08:16:57;;;;;;;14.93;13.40;;;;;;;19.34;40.53;99482.91;1749337;81;25582;-62
2021/04/30 08:19:25;;;;;;;14.65;13.05;;;;;;;18.96;41.05;99472.22;1766626;81;25637;-59
2021/04/30 08:21:53;;;;;;;14.83;13.32;;;;;;;18.77;42.67;99479.36;1742978;81;25713;-61
2021/04/30 08:24:21;;;;;;;16.45;12.95;;;;;;;18.43;42.83;99474.87;1752673;81;25628;-58
2021/04/30 08:26:48;;;;;;;14.95;11.88;;;;;;;18.31;43.29;99478.52;1733058;82;26003;-58
2021/04/30 08:29:18;;;;;;;13.48;11.18;;;;;;;18.03;43.04;99464.81;1732920;82;25566;-58
2021/04/30 08:31:45;;;;;;;14.73;11.95;;;;;;;17.82;42.85;99485.92;1732969;82;25569;-58
2021/04/30 08:34:14;;;;;;;14.03;11.25;;;;;;;17.68;43.86;99483.25;1732936;82;25799;-59
2021/04/30 08:36:40;;;;;;;13.50;11.12;;;;;;;17.71;42.62;99485.83;1732861;82;25680;-58
2021/04/30 08:39:09;;;;;;;14.20;10.28;;;;;;;17.77;43.37;99497.98;1732710;82;25517;-58
2021/04/30 08:41:37;;;;;;;12.18;8.78;;;;;;;17.81;43.67;99494.72;1732936;82;25323;-58
2021/04/30 08:44:05;;;;;;;13.15;9.13;;;;;;;17.99;44.02;99486.67;1732840;82;25613;-59
2021/04/30 08:46:34;;;;;;;11.08;8.65;;;;;;;18.18;43.95;99487.02;1732934;82;25711;-58
2021/04/30 08:49:11;;;;;;;12.58;7.72;;;;;;;18.25;42.59;99484.34;1732939;82;25802;-58
2021/04/30 08:51:40;;;;;;;10.08;8.03;;;;;;;18.29;42.52;99489.25;1732801;82;25673;-58
2021/04/30 08:54:08;;;;;;;9.73;8.53;;;;;;;18.36;43.17;99493.98;1732761;82;25613;-58
2021/04/30 08:56:43;;;;;;;9.70;8.28;;;;;;;18.42;42.89;99483.46;1732875;82;26366;-56
2021/04/30 08:59:05;;;;;;;14.45;8.18;;;;;;;18.53;43.02;99488.42;1731622;82;26692;-58
2021/04/30 09:01:32;;;;;;;8.95;7.92;;;;;;;18.76;43.64;99479.15;1732317;82;26180;-58
2021/04/30 09:03:59;;;;;;;9.60;7.37;;;;;;;19.07;42.88;99494.77;1740186;81;25749;-58
2021/04/30 09:06:35;;;;;;;9.53;7.35;;;;;;;19.22;42.02;99487.60;1732705;82;25810;-58
2021/04/30 09:09:14;;;;;;;11.90;8.23;;;;;;;19.33;41.71;99484.11;1741111;81;25617;-57
2021/04/30 09:11:48;;;;;;;;;;;;;;;19.41;40.36;99499.41;1733235;82;25870;-57
2021/04/30 09:14:31;;;;;;;8.53;6.83;;;;;;;19.48;39.94;99492.56;1730988;81;25592;-57
2021/04/30 09:17:15;;;;;;;10.63;7.12;;;;;;;19.41;40.13;99491.18;1730722;82;25654;-57
2021/04/30 09:19:55;;;;;;;10.80;7.67;;;;;;;19.38;40.37;99500.95;1730838;82;25644;-56
2021/04/30 09:22:36;;;;;;;12.20;7.70;;;;;;;19.51;39.79;99489.05;1730695;82;25641;-57
2021/04/30 09:25:10;;;;;;;12.07;8.33;;;;;;;19.69;39.58;99512.38;1730743;82;25717;-56
2021/04/30 09:27:41;;;;;;;9.15;7.92;;;;;;;19.97;39.19;99498.50;1730370;82;25620;-56
2021/04/30 09:30:26;;;;;;;10.43;7.87;;;;;;;20.13;39.45;99509.11;1730693;82;25654;-56
2021/04/30 09:33:15;;;;;;;13.60;8.70;;;;;;;20.23;37.05;99531.66;1730698;82;26253;-56
2021/04/30 09:35:49;;;;;;;15.18;9.58;;;;;;;19.96;37.99;99512.05;1730768;82;25589;-56
2021/04/30 09:38:24;;;;;;;12.75;8.73;;;;;;;19.70;37.42;99505.73;1728411;82;26021;-56
2021/04/30 09:41:07;;;;;;;12.98;7.70;;;;;;;19.65;37.33;99517.08;1730588;82;25593;-56
2021/04/30 09:43:50;;;;;;;12.63;8.15;;;;;;;19.77;38.90;99512.62;1730672;82;25638;-56
2021/04/30 09:46:34;;;;;;;10.90;8.30;;;;;;;19.93;37.98;99513.59;1730615;82;25653;-55
2021/04/30 09:51:50;;;;;;;11.70;9.95;;;;;;;19.60;37.29;99518.23;1845127;76;26163;-55
2021/04/30 09:54:27;;;;;;;13.65;9.48;;;;;;;19.40;38.19;99528.77;1792704;78;25650;-55
2021/04/30 09:57:11;;;;;;;14.00;10.63;;;;;;;19.50;38.30;99523.71;1789609;77;25747;-55
2021/04/30 09:59:40;;;;;;;11.75;8.73;;;;;;;19.50;38.43;99525.08;1816008;78;25630;-55
2021/04/30 10:02:17;;;;;;;10.60;9.45;;;;;;;19.42;37.32;99509.19;1814722;78;26294;-55
2021/04/30 10:04:50;;;;;;;14.93;10.30;;;;;;;19.49;38.61;99529.77;1785683;80;26165;-55
2021/04/30 10:07:37;;;;;;;13.72;10.05;;;;;;;19.75;37.43;99520.45;1786620;78;25647;-54
2021/04/30 10:10:12;;;;;;;19.82;10.58;;;;;;;19.68;37.26;99536.88;1784508;78;25955;-55
2021/04/30 10:12:42;;;;;;;14.75;10.70;;;;;;;19.63;38.23;99535.09;1783573;80;25766;-55
2021/04/30 10:15:12;;;;;;;12.73;11.43;;;;;;;19.95;38.11;99533.80;1784819;80;25601;-55
2021/04/30 10:17:39;;;;;;;14.43;10.05;;;;;;;20.05;37.73;99536.36;1784924;80;25649;-55
2021/04/30 10:20:12;;;;;;;13.43;11.70;;;;;;;20.13;38.46;99536.56;1785123;80;25785;-53
2021/04/30 10:22:41;;;;;;;11.53;10.13;;;;;;;20.57;38.21;99539.47;1785087;80;26566;-55
2021/04/30 10:25:18;;;;;;;12.50;10.65;;;;;;;20.90;37.26;99539.60;1785073;80;25870;-55
2021/04/30 10:27:53;;;;;;;12.80;10.43;;;;;;;20.99;35.50;99541.16;1785100;80;25653;-54
2021/04/30 10:30:44;;;;;;;16.77;12.45;;;;;;;20.74;36.16;99548.09;1784919;80;25831;-55
2021/04/30 10:33:45;;;;;;;15.43;11.40;;;;;;;20.74;35.17;99535.15;1785120;80;25603;-54
2021/04/30 10:36:29;;;;;;;13.70;10.60;;;;;;;20.61;34.38;99543.58;1785014;80;28059;-54
2021/04/30 10:38:54;;;;;;;14.00;11.10;;;;;;;20.66;36.10;99543.98;1784579;80;25694;-54
2021/04/30 10:41:35;;;;;;;16.30;11.85;;;;;;;20.85;35.72;99548.25;1785048;80;26178;-55
2021/04/30 10:44:24;;;;;;;12.50;11.10;;;;;;;20.80;34.46;99557.50;1785077;80;25663;-54
2021/04/30 10:46:55;;;;;;;11.90;9.98;;;;;;;20.66;34.85;99559.09;1785091;80;25594;-55
2021/04/30 10:49:22;;;;;;;12.68;10.23;;;;;;;20.57;35.34;99553.20;1766963;79;25724;-58
2021/04/30 10:52:16;;;;;;;12.58;10.35;;;;;;;20.78;35.44;99551.03;1772154;79;25605;-65
2021/04/30 10:54:39;;;;;;;;;;;;;;;21.03;35.64;99555.69;1755423;81;25664;-61
2021/04/30 10:57:17;;;;;;;14.55;10.58;;;;;;;21.03;34.07;99558.44;1783964;80;25646;-62
2021/04/30 10:59:53;;;;;;;14.70;10.53;;;;;;;21.18;34.72;99561.89;1740079;80;25663;-63
2021/04/30 11:05:09;;;;;;;16.02;10.70;;;;;;;21.90;34.68;99578.09;1887201;76;25578;-66
2021/04/30 11:07:51;;;;;;;12.70;9.83;;;;;;;22.02;33.77;99581.73;1858139;77;25665;-63
2021/04/30 11:10:32;;;;;;;12.85;9.68;;;;;;;22.01;33.41;99582.34;1858226;77;26075;-61
2021/04/30 11:13:13;;;;;;;12.18;10.10;;;;;;;22.03;32.97;99593.52;1858059;77;25557;-61
2021/04/30 11:15:51;;;;;;;15.15;10.68;;;;;;;21.87;31.56;99589.30;1857995;77;25577;-60
2021/04/30 11:18:22;;;;;;;11.57;9.58;;;;;;;21.68;30.89;99587.06;1858110;77;25598;-61
2021/04/30 11:21:12;;;;;;;10.15;9.15;;;;;;;21.42;32.48;99589.13;1858138;77;25585;-61
2021/04/30 11:23:55;;;;;;;10.35;8.48;;;;;;;21.47;31.79;99601.69;1857015;77;25700;-61
2021/04/30 11:26:23;;;;;;;9.33;8.43;;;;;;;21.51;32.50;99612.11;1824014;78;25595;-61
2021/04/30 11:29:04;;;;;;;13.32;8.30;;;;;;;21.52;31.12;99600.70;1841858;77;25638;-60
2021/04/30 11:31:32;;;;;;;11.03;8.60;;;;;;;21.37;31.29;99597.80;1856412;77;26286;-56
2021/04/30 11:34:16;;;;;;;10.72;8.68;;;;;;;21.45;32.25;99608.94;1854988;77;25772;-56
2021/04/30 11:36:46;;;;;;;10.28;8.28;;;;;;;21.67;32.02;99608.28;1801415;77;26318;-55
2021/04/30 11:39:29;;;;;;;9.90;8.70;;;;;;;21.78;31.53;99611.77;1755883;81;25681;-55
2021/04/30 11:42:10;;;;;;;9.30;8.40;;;;;;;21.87;31.20;99605.81;1756363;80;25746;-56
2021/04/30 11:44:38;;;;;;;11.35;8.03;;;;;;;21.66;30.52;99616.36;1779314;80;25605;-55
2021/04/30 11:47:06;;;;;;;12.33;8.98;;;;;;;21.62;31.33;99619.13;1779808;80;25608;-56
2021/04/30 11:49:39;;;;;;;15.13;8.55;;;;;;;21.37;30.53;99608.80;1822474;77;25911;-56
2021/04/30 11:52:11;;;;;;;11.15;9.08;;;;;;;21.44;31.72;99608.77;1820323;77;25686;-56
2021/04/30 11:54:40;;;;;;;10.48;7.90;;;;;;;21.53;31.15;99617.38;1809455;77;25642;-57
2021/04/30 11:57:15;;;;;;;11.15;8.00;;;;;;;21.49;31.46;99616.62;1827117;77;25599;-58
2021/04/30 11:59:45;;;;;;;9.75;8.08;;;;;;;21.60;31.64;99626.20;1779115;79;25585;-56
2021/04/30 12:02:12;;;;;;;13.50;7.67;;;;;;;21.68;31.29;99620.09;1776003;79;26275;-56
2021/04/30 12:04:49;;;;;;;8.80;7.12;;;;;;;21.88;31.31;99613.47;1826485;77;25933;-56
2021/04/30 12:07:17;;;;;;;10.45;9.25;;;;;;;22.07;31.33;99630.09;1819813;78;25540;-55
2021/04/30 12:09:45;;;;;;;10.38;8.65;;;;;;;21.89;30.20;99620.55;1820356;78;25646;-56
2021/04/30 12:12:20;;;;;;;10.63;7.72;;;;;;;21.69;30.52;99630.70;1818359;77;25737;-55
2021/04/30 12:15:01;;;;;;;9.90;8.38;;;;;;;21.49;30.50;99628.20;1813223;79;28089;-55
2021/04/30 12:17:32;;;;;;;14.90;9.68;;;;;;;21.36;29.88;99633.34;1814875;77;25690;-57
2021/04/30 12:20:07;;;;;;;11.43;8.00;;;;;;;21.20;30.99;99641.45;1785675;79;25622;-58
2021/04/30 12:22:44;;;;;;;8.75;7.95;;;;;;;20.96;30.52;99654.64;1814344;79;25655;-56
2021/04/30 12:25:43;;;;;;;11.45;8.45;;;;;;;20.60;31.42;99639.53;1799419;79;25630;-56
2021/04/30 12:28:21;;;;;;;13.30;10.20;;;;;;;20.51;31.61;99646.80;1815769;79;25732;-56
2021/04/30 12:30:55;;;;;;;12.63;9.13;;;;;;;20.41;31.27;99643.45;1779972;80;25634;-56
2021/04/30 12:33:42;;;;;;;11.40;10.28;;;;;;;20.10;31.76;99648.52;1761061;81;26287;-56
2021/04/30 12:36:21;;;;;;;14.35;8.78;;;;;;;19.87;31.61;99652.39;1761095;81;25633;-55
2021/04/30 12:38:54;;;;;;;10.98;8.40;;;;;;;19.65;32.05;99652.88;1667283;86;25667;-56
2021/04/30 12:41:25;;;;;;;10.23;9.23;;;;;;;19.65;32.62;99660.30;1667430;86;25816;-55
2021/04/30 12:44:00;;;;;;;10.40;9.38;;;;;;;19.45;32.29;99660.61;1667326;86;25680;-56
2021/04/30 12:46:40;;;;;;;10.58;9.33;;;;;;;19.29;33.01;99654.08;1667434;86;25662;-57
2021/04/30 12:49:13;;;;;;;9.85;8.85;;;;;;;19.48;33.67;99644.77;1667342;86;25635;-57
2021/04/30 12:51:43;;;;;;;10.43;9.43;;;;;;;19.86;32.98;99660.41;1667383;86;25640;-56
2021/04/30 12:54:11;;;;;;;12.07;10.50;;;;;;;20.00;32.70;99668.48;1667348;86;25844;-56
2021/04/30 12:56:49;;;;;;;9.68;8.68;;;;;;;19.92;32.16;99669.84;1700618;81;25665;-55
2021/04/30 12:59:16;;;;;;;10.40;9.35;;;;;;;19.92;33.01;99668.48;1815472;79;25551;-56
2021/04/30 13:01:46;;;;;;;9.98;8.88;;;;;;;20.13;33.17;99671.86;1815279;77;25918;-55
2021/04/30 13:04:21;;;;;;;12.37;9.60;;;;;;;20.39;33.09;99667.19;1804148;78;25602;-55
2021/04/30 13:06:52;;;;;;;10.63;8.53;;;;;;;20.49;32.78;99670.53;1786399;80;26882;-56
2021/04/30 13:09:25;;;;;;;10.15;8.70;;;;;;;20.73;33.05;99670.96;1786589;80;25605;-56
2021/04/30 13:12:03;;;;;;;12.75;9.75;;;;;;;20.94;32.21;99674.27;1786598;80;26218;-55
2021/04/30 13:14:49;;;;;;;10.80;9.70;;;;;;;20.85;31.72;99677.42;1786487;80;25528;-58
2021/04/30 13:17:28;;;;;;;11.75;9.20;;;;;;;20.54;31.49;99677.61;1786563;80;25540;-58
2021/04/30 13:23:10;;;;;;;13.50;9.78;;;;;;;20.07;32.20;99677.52;1849115;76;25399;-56
2021/04/30 13:25:42;;;;;;;11.80;9.58;;;;;;;20.10;32.33;99669.11;1819197;78;25510;-55
2021/04/30 13:28:17;;;;;;;13.58;10.93;;;;;;;20.28;32.96;99671.30;1819155;78;26608;-56
2021/04/30 13:30:51;;;;;;;14.83;9.53;;;;;;;20.47;32.46;99664.65;1817957;77;25635;-56
2021/04/30 13:33:21;;;;;;;11.88;10.55;;;;;;;20.18;31.84;99668.55;1819355;77;25710;-54
2021/04/30 13:35:55;;;;;;;12.63;11.35;;;;;;;19.97;32.24;99671.41;1782670;80;25606;-54
2021/04/30 13:38:27;;;;;;;10.45;9.35;;;;;;;19.56;31.98;99666.14;1768413;80;25552;-55
2021/04/30 13:41:16;;;;;;;11.53;10.32;;;;;;;19.54;33.12;99668.48;1737313;81;25840;-54
2021/04/30 13:43:44;;;;;;;;;;;;;;;19.67;32.79;99680.70;1736090;82;25623;-55
2021/04/30 13:46:17;;;;;;;12.93;10.30;;;;;;;19.54;32.54;99676.12;1733490;82;25556;-54
2021/04/30 13:48:46;;;;;;;12.18;10.98;;;;;;;19.33;32.42;99682.29;1733459;82;25628;-54
2021/04/30 13:51:17;;;;;;;13.45;11.08;;;;;;;19.10;32.02;99683.12;1733532;82;25631;-53
2021/04/30 13:53:44;;;;;;;12.90;10.50;;;;;;;18.67;32.57;99672.00;1733450;82;25782;-52
2021/04/30 13:56:12;;;;;;;16.20;12.18;;;;;;;18.57;32.91;99686.39;1733283;82;25677;-53
2021/04/30 13:58:50;;;;;;;14.30;12.13;;;;;;;18.55;33.21;99681.11;1733415;82;25601;-52
2021/04/30 14:01:18;;;;;;;14.65;11.03;;;;;;;18.20;33.08;99687.80;1702807;82;25637;-52
2021/04/30 14:03:46;;;;;;;14.78;10.38;;;;;;;17.85;33.83;99693.84;1733499;82;25657;-54
2021/04/30 14:06:13;;;;;;;13.22;10.60;;;;;;;17.85;34.59;99685.63;1703366;82;25898;-53
2021/04/30 14:08:41;;;;;;;12.45;10.48;;;;;;;18.00;34.44;99700.89;1733310;82;25621;-53
2021/04/30 14:11:07;;;;;;;13.60;11.18;;;;;;;17.84;33.76;99707.89;1733422;82;25891;-53
2021/04/30 14:13:34;;;;;;;11.38;10.18;;;;;;;17.61;34.10;99697.06;1733392;82;25588;-53
2021/04/30 14:16:01;;;;;;;11.25;10.03;;;;;;;17.45;34.52;99708.97;1733402;82;25575;-53
2021/04/30 14:18:28;;;;;;;11.15;9.58;;;;;;;17.43;34.58;99698.18;1733340;82;25708;-52
2021/04/30 14:20:54;;;;;;;10.55;9.15;;;;;;;17.39;34.79;99700.09;1733518;81;25647;-53
2021/04/30 14:23:21;;;;;;;9.60;8.60;;;;;;;17.38;34.93;99698.50;1752985;81;25649;-51
2021/04/30 14:25:47;;;;;;;11.53;9.03;;;;;;;17.38;35.19;99703.97;1752910;81;25535;-52
2021/04/30 14:28:13;;;;;;;11.00;9.20;;;;;;;17.49;35.18;99707.66;1752985;81;25576;-51
2021/04/30 14:30:40;;;;;;;14.70;10.05;;;;;;;17.61;35.01;99708.00;1727452;81;25715;-53
2021/04/30 14:33:06;;;;;;;11.83;8.63;;;;;;;17.62;34.72;99710.93;1752730;81;25546;-52
2021/04/30 14:35:33;;;;;;;10.35;9.28;;;;;;;17.73;35.15;99707.77;1752465;81;25690;-51
2021/04/30 14:38:00;;;;;;;9.98;8.80;;;;;;;17.79;34.72;99711.73;1752365;81;25596;-52
2021/04/30 14:40:27;;;;;;;8.98;8.08;;;;;;;17.74;34.88;99713.42;1752479;81;25659;-52
2021/04/30 14:42:54;;;;;;;11.65;8.38;;;;;;;17.71;35.15;99721.81;1752393;80;25984;-52
2021/04/30 14:45:20;;;;;;;9.20;8.10;;;;;;;17.79;35.26;99726.00;1726870;81;25593;-52
2021/04/30 14:47:47;;;;;;;10.03;9.03;;;;;;;17.77;35.37;99729.09;1752437;81;25598;-53
2021/04/30 14:50:13;;;;;;;11.33;9.28;;;;;;;17.70;35.15;99730.38;1752356;81;25530;-52
2021/04/30 14:52:40;;;;;;;9.73;7.97;;;;;;;17.60;35.18;99730.44;1752415;81;25534;-55
2021/04/30 14:55:08;;;;;;;11.60;10.13;;;;;;;17.54;35.56;99734.67;1752433;81;25764;-53
2021/04/30 14:57:35;;;;;;;9.40;8.40;;;;;;;17.61;35.76;99732.61;1752339;81;25549;-53
2021/04/30 15:00:02;;;;;;;10.30;8.68;;;;;;;17.57;35.53;99732.57;1752445;81;26169;-53
2021/04/30 15:02:30;;;;;;;10.80;8.55;;;;;;;17.45;35.53;99728.11;1752476;81;25603;-53
2021/04/30 15:04:56;;;;;;;9.60;8.60;;;;;;;17.28;35.96;99737.62;1752431;81;25603;-53
2021/04/30 15:07:23;;;;;;;11.43;8.63;;;;;;;17.17;36.28;99738.81;1752390;81;26215;-51
2021/04/30 15:09:55;;;;;;;11.48;9.05;;;;;;;17.05;36.32;99740.38;1726608;81;25639;-53
2021/04/30 15:12:18;;;;;;;11.22;8.20;;;;;;;16.92;36.45;99745.81;1751961;81;25808;-51
2021/04/30 15:14:44;;;;;;;10.30;8.68;;;;;;;16.78;36.83;99745.76;1752361;81;25673;-52
2021/04/30 15:17:11;;;;;;;9.10;8.20;;;;;;;16.77;37.08;99735.20;1752389;81;25566;-62
2021/04/30 15:19:38;;;;;;;11.18;8.63;;;;;;;16.77;37.18;99753.75;1752339;81;26255;-62
2021/04/30 15:22:04;;;;;;;11.15;8.73;;;;;;;16.75;37.19;99749.80;1745022;81;25710;-61
2021/04/30 15:24:31;;;;;;;10.30;9.10;;;;;;;16.69;37.12;99756.14;1704013;81;25607;-61
2021/04/30 15:26:59;;;;;;;10.50;9.25;;;;;;;16.54;37.33;99749.63;1749470;82;25650;-61
2021/04/30 15:29:25;;;;;;;12.90;9.15;;;;;;;16.44;37.51;99752.95;1745001;80;25649;-61
2021/04/30 15:31:51;;;;;;;10.68;9.28;;;;;;;16.37;37.63;99761.80;1745095;82;26872;-61
2021/04/30 15:34:18;;;;;;;9.98;8.13;;;;;;;16.26;37.68;99755.36;1745226;82;25638;-62
2021/04/30 15:36:44;;;;;;;11.63;8.95;;;;;;;16.20;38.00;99765.75;1745346;82;25603;-62
2021/04/30 15:39:13;;;;;;;9.80;8.73;;;;;;;16.09;38.12;99768.05;1745210;82;25899;-61
2021/04/30 15:41:43;;;;;;;9.63;7.90;;;;;;;15.95;38.38;99763.09;1745356;82;26216;-61
2021/04/30 15:44:07;;;;;;;10.53;8.30;;;;;;;15.84;38.63;99754.11;1754376;80;25810;-61
2021/04/30 15:46:34;;;;;;;9.33;8.20;;;;;;;15.71;38.91;99753.99;1781954;80;25719;-61
2021/04/30 15:49:02;;;;;;;9.83;8.33;;;;;;;15.61;39.20;99754.55;1766849;80;25652;-62
2021/04/30 15:51:29;;;;;;;11.35;8.70;;;;;;;15.54;39.28;99755.18;1751065;81;25617;-61
2021/04/30 15:53:57;;;;;;;12.10;7.87;;;;;;;15.50;39.47;99751.02;1750959;81;25806;-61
2021/04/30 15:56:24;;;;;;;11.03;8.50;;;;;;;15.45;39.65;99749.15;1751054;81;26550;-61
2021/04/30 15:58:51;;;;;;;11.73;8.70;;;;;;;15.37;39.79;99758.30;1751112;81;25603;-62
2021/04/30 16:01:18;;;;;;;11.30;8.25;;;;;;;15.28;40.01;99758.48;1751216;81;25530;-62
2021/04/30 16:03:46;;;;;;;10.93;8.88;;;;;;;15.20;40.42;99758.09;1751037;81;25978;-63
2021/04/30 16:06:13;;;;;;;9.88;8.55;;;;;;;15.13;40.49;99763.58;1751167;81;25585;-62
2021/04/30 16:08:40;;;;;;;10.18;9.13;;;;;;;15.04;40.70;99765.70;1751087;81;26595;-63
2021/04/30 16:11:07;;;;;;;11.10;9.35;;;;;;;14.88;40.77;99768.44;1751196;81;25557;-62
2021/04/30 16:13:35;;;;;;;13.88;9.48;;;;;;;14.75;40.97;99773.16;1751115;81;25581;-62
2021/04/30 16:16:05;;;;;;;10.13;8.55;;;;;;;14.68;41.20;99774.34;1751212;81;25573;-63
2021/04/30 16:18:32;;;;;;;9.40;8.15;;;;;;;14.64;41.38;99783.54;1721974;81;25593;-63
2021/04/30 16:21:01;;;;;;;13.48;9.33;;;;;;;14.53;41.73;99775.85;1751275;81;25776;-63
2021/04/30 16:23:28;;;;;;;12.05;8.80;;;;;;;14.42;41.82;99780.23;1750779;80;25752;-63
2021/04/30 16:25:55;;;;;;;12.37;9.50;;;;;;;14.30;42.22;99787.87;1751196;81;25542;-63
2021/04/30 16:28:22;;;;;;;10.50;9.28;;;;;;;14.16;42.46;99792.31;1751040;81;25513;-63
2021/04/30 16:30:49;;;;;;;19.07;13.30;;;;;;;14.04;42.71;99794.30;1751028;81;25494;-63
2021/04/30 16:33:15;;;;;;;11.35;10.03;;;;;;;13.94;43.08;99796.92;1751283;81;25704;-63
2021/04/30 16:35:42;;;;;;;10.63;8.98;;;;;;;13.78;43.02;99804.43;1751087;81;25601;-63
2021/04/30 16:38:09;;;;;;;11.00;8.95;;;;;;;13.69;43.39;99801.05;1719780;83;25614;-62
2021/04/30 16:40:37;;;;;;;11.95;9.45;;;;;;;13.57;43.43;99801.86;1724401;83;25537;-63
2021/04/30 16:43:04;;;;;;;13.18;10.08;;;;;;;13.46;43.57;99811.59;1732821;82;25585;-63
2021/04/30 16:45:32;;;;;;;10.53;9.13;;;;;;;13.31;43.85;99821.17;1732792;82;25721;-62
2021/04/30 16:48:01;;;;;;;10.63;9.35;;;;;;;13.18;44.03;99814.95;1701587;82;25557;-62
2021/04/30 16:50:29;;;;;;;10.48;8.85;;;;;;;13.07;44.18;99820.00;1733097;82;25892;-62
2021/04/30 16:52:57;;;;;;;11.38;9.43;;;;;;;12.97;44.38;99816.94;1733117;82;25558;-62
2021/04/30 16:55:24;;;;;;;9.25;8.05;;;;;;;12.86;44.72;99816.02;1732715;81;25635;-63
2021/04/30 16:57:54;;;;;;;9.73;8.10;;;;;;;12.78;44.83;99814.75;1731974;82;25776;-63
2021/04/30 17:00:22;;;;;;;15.93;11.50;;;;;;;12.70;45.08;99815.87;1732126;82;25695;-65
2021/04/30 17:02:49;;;;;;;13.55;9.48;;;;;;;12.61;45.11;99821.92;1731419;81;25963;-64
2021/04/30 17:05:16;;;;;;;11.38;9.38;;;;;;;12.54;45.53;99823.61;1736830;81;25586;-65
2021/04/30 17:07:43;;;;;;;9.83;8.80;;;;;;;12.42;45.89;99825.70;1745517;81;25532;-64
2021/04/30 17:10:11;;;;;;;13.15;10.43;;;;;;;12.28;45.96;99829.48;1731579;82;25781;-65
2021/04/30 17:12:38;;;;;;;12.55;8.63;;;;;;;12.18;46.04;99829.09;1731230;82;25636;-64
2021/04/30 17:15:07;;;;;;;12.90;9.10;;;;;;;12.07;46.16;99834.91;1731441;82;25751;-66
2021/04/30 17:17:34;;;;;;;13.75;8.98;;;;;;;11.96;46.55;99837.77;1733496;81;25678;-65
2021/04/30 17:20:00;;;;;;;14.00;9.30;;;;;;;11.86;46.76;99844.90;1754320;79;25716;-64